Les articles d'ExpertMaritime.pro


Votre expert maritime indépendant Xavier Braive est disponible sur la zone de Meschers-sur-Gironde - Port de Meschers - 17132

(Charente-Maritime - Poitou-Charentes)


Voir plan
Situation :

Le Port de Meschers, situé sur la rive droite de la Gironde près de son embouchure, est abrité par tous temps.

Il comprend :

- Un avant-chenal de 250 m de long, large de 8 m qui fait un angle de 8° W avec le Nord vrai, creusé à la cote + 0,50 m ; le vieux havre d’échouage ou « chenal » équipé de quai, cales en 1861.

- Un bassin d’échouage créé 1985 de 121 places sur pontons flottants, creuse à la cote + 1 m.

- Un bassin à flot mis en service en 1990, de 121 places à l’origine, 116 aujourd’hui (on y a placé des bateaux plus grands que prévu), en arrière d’une porte-écluse, T.E. 2,50 m ; le seuil de l’écluse est à la cote + 2 m ; les portes ouvrent quand la mer atteint le niveau + 3,50 m, avec 1,50 m d’eau sur le seuil (les cotes se réfèrent au niveau 0 des cartes marines).
Lat. 45° 33?, 3 N – Long. 00° 56?, 6 W ; carte SHOM 7029.
Distances : LE VERDON : 3,5 M. – ROYAN : 5 M. – PAUILLAC : 23 M. – BORDEAUX : 48 M.

- Une zone de mouillage, ouverte d’Avril à Septembre, de 22 corps morts, sur les vases à l’est du chenal d’accès.

Pratique :

Ville de Meschers : Location des anneaux.
Capitainerie, Tél.: 05.46.02.56.89 – VHF canal 9 –
n° de Fax 05 46 02 34 77 - GSM 06 15 11 23 10
Monsieur KERDUDOU est le capitaine assermenté du port.

SAUVETAGE :
CROSS ETEL, Tél.: O2 .97.553.535.
De juin à septembre Poste de Secours – Plage des Nonnes,
Tél. : 05.46.02.72.92, situé à 1 mille au nord du Port.
Météo affichée à la Capitainerie.
Météo locale sur la zone Port de Meschers
Heure (UTC) Dir.Vent Vit.Vent (nds) Force (Bft) T°min T°max P (mb) Hum.Rel.
20/01/2021 - 12:00:00 au 20/01/2021 - 15:00:00 177° (S) 17 5 11°C 11°C 1000 68 %
20/01/2021 - 15:00:00 au 20/01/2021 - 18:00:00 185° (S) 20 5 11°C 12°C 998 67 %
20/01/2021 - 18:00:00 au 20/01/2021 - 21:00:00 201° (SSW) 24 6 12°C 12°C 998 73 %
20/01/2021 - 21:00:00 au 21/01/2021 - 00:00:00 216° (SW) 23 6 12°C 12°C 999 78 %
21/01/2021 - 00:00:00 au 21/01/2021 - 03:00:00 240° (WSW) 21 5 12°C 12°C 1000 87 %
21/01/2021 - 03:00:00 au 21/01/2021 - 06:00:00 252° (WSW) 12 4 10°C 10°C 1003 88 %
21/01/2021 - 06:00:00 au 21/01/2021 - 09:00:00 209° (SSW) 11 4 10°C 10°C 1003 84 %
21/01/2021 - 09:00:00 au 21/01/2021 - 12:00:00 198° (SSW) 18 5 12°C 12°C 1000 79 %
21/01/2021 - 12:00:00 au 21/01/2021 - 15:00:00 220° (SW) 28 7 13°C 13°C 998 73 %
21/01/2021 - 15:00:00 au 21/01/2021 - 18:00:00 244° (WSW) 24 6 11°C 11°C 998 77 %
21/01/2021 - 18:00:00 au 21/01/2021 - 21:00:00 249° (WSW) 21 5 11°C 11°C 999 77 %
21/01/2021 - 21:00:00 au 22/01/2021 - 00:00:00 237° (WSW) 17 5 11°C 11°C 998 85 %
22/01/2021 - 00:00:00 au 22/01/2021 - 03:00:00 232° (SW) 21 5 12°C 12°C 995 76 %
22/01/2021 - 03:00:00 au 22/01/2021 - 06:00:00 228° (SW) 20 5 11°C 11°C 992 85 %
22/01/2021 - 06:00:00 au 22/01/2021 - 09:00:00 330° (NNW) 15 4 8°C 8°C 993 86 %
22/01/2021 - 09:00:00 au 22/01/2021 - 12:00:00 324° (NW) 15 4 8°C 8°C 998 74 %
22/01/2021 - 12:00:00 au 22/01/2021 - 15:00:00 293° (WNW) 14 4 10°C 10°C 1001 68 %
22/01/2021 - 15:00:00 au 22/01/2021 - 18:00:00 277° (W) 12 4 9°C 9°C 1003 73 %
22/01/2021 - 18:00:00 au 22/01/2021 - 21:00:00 228° (SW) 8 3 8°C 8°C 1001 79 %
22/01/2021 - 21:00:00 au 23/01/2021 - 00:00:00 230° (SW) 10 3 8°C 8°C 1000 92 %
23/01/2021 - 00:00:00 au 23/01/2021 - 03:00:00 285° (WNW) 10 3 7°C 7°C 999 80 %
23/01/2021 - 03:00:00 au 23/01/2021 - 06:00:00 276° (W) 20 5 9°C 9°C 999 73 %
23/01/2021 - 06:00:00 au 23/01/2021 - 09:00:00 294° (WNW) 19 5 8°C 8°C 1002 68 %
23/01/2021 - 09:00:00 au 23/01/2021 - 12:00:00 294° (WNW) 20 5 9°C 9°C 1005 62 %
23/01/2021 - 12:00:00 au 23/01/2021 - 15:00:00 289° (WNW) 13 4 8°C 8°C 1004 65 %
23/01/2021 - 15:00:00 au 23/01/2021 - 18:00:00 281° (W) 4 2 7°C 7°C 1004 70 %
23/01/2021 - 18:00:00 au 23/01/2021 - 21:00:00 168° (SSE) 3 1 7°C 7°C 1003 73 %
23/01/2021 - 21:00:00 au 24/01/2021 - 00:00:00 199° (SSW) 5 2 6°C 6°C 1003 82 %
24/01/2021 - 00:00:00 au 24/01/2021 - 03:00:00 268° (W) 8 3 7°C 7°C 1004 78 %
24/01/2021 - 03:00:00 au 24/01/2021 - 06:00:00 296° (WNW) 9 3 7°C 7°C 1005 75 %
24/01/2021 - 06:00:00 au 24/01/2021 - 09:00:00 305° (NW) 14 4 8°C 8°C 1007 73 %
24/01/2021 - 09:00:00 au 24/01/2021 - 12:00:00 309° (NW) 16 4 8°C 8°C 1009 65 %
24/01/2021 - 12:00:00 au 24/01/2021 - 15:00:00 291° (WNW) 16 4 7°C 7°C 1010 77 %
24/01/2021 - 15:00:00 au 24/01/2021 - 18:00:00 304° (NW) 16 4 7°C 7°C 1011 76 %
24/01/2021 - 18:00:00 au 24/01/2021 - 21:00:00 315° (NW) 15 4 7°C 7°C 1013 73 %
24/01/2021 - 21:00:00 au 25/01/2021 - 00:00:00 326° (NW) 10 3 6°C 6°C 1015 70 %
25/01/2021 - 00:00:00 au 25/01/2021 - 03:00:00 306° (NW) 8 3 6°C 6°C 1016 69 %
25/01/2021 - 03:00:00 au 25/01/2021 - 06:00:00 301° (WNW) 6 2 6°C 6°C 1017 72 %
25/01/2021 - 06:00:00 au 25/01/2021 - 09:00:00 301° (WNW) 5 2 7°C 7°C 1019 72 %
25/01/2021 - 09:00:00 au 25/01/2021 - 12:00:00 296° (WNW) 8 3 9°C 9°C 1021 65 %
openweathermap
Ces informations sont partiellement extraites de Wikipedia, et des sites pertinents pour cette zone. Compilation d'informations de Xavier Braive.
Xavier Braive, Expert Maritime Plaisance se déplace sur Port de Meschers, Meschers-sur-Gironde, 17132, Charente-Maritime

Welcome to Cross-Channel yachtmen !

we can deliver survey reports in english, in case of dammage or prior to buy / sell a boat in France (pre-purchase survey), and more specifically on the Atlantic coast.

Uw onafhankelijk jachtexpert

verkrijkbaar op de Atlantische kust, bij aankoop of reparatie van jachten (metaal, polyester of composiet). Rapporten in Nederlands

BRAIVE, Xavier
Xavier Braive
Expert Maritime
Nouvelle Aquitaine
France
06 71 50 20 17